Januaria Airport


Codes: SNJN/JNA
Name: Januaria Airport
City: Januaria
Country: Brazil
Elevation: 1575 ft.

Photos at Januaria Airport


   Photos courtesy of SpottingLog. You can add your own sightings and photos by signing up for a free trial today.



No photos found.

Weather at Januaria Airport


Time (UTC)DescriptionTempratureWindCloud coverageVisibilityPressureHumidity
21-Jun-2024 12:00Clear Sky24°C9 mph, E1%10000m1019hPa46%
21-Jun-2024 15:00Clear Sky26°C9 mph, E1%10000m1018hPa41%
21-Jun-2024 18:00Clear Sky28°C7 mph, NE0%10000m1016hPa33%
21-Jun-2024 21:00Few Clouds26°C2 mph, E20%10000m1014hPa38%
22-Jun-2024 00:00Broken Clouds23°C4 mph, E55%10000m1016hPa51%
22-Jun-2024 03:00Broken Clouds20°C7 mph, E76%10000m1018hPa55%
22-Jun-2024 06:00Broken Clouds17°C4 mph, NE70%10000m1017hPa71%
22-Jun-2024 09:00Broken Clouds15°C4 mph, NE55%10000m1018hPa78%
22-Jun-2024 12:00Scattered Clouds24°C9 mph, E34%10000m1020hPa45%
22-Jun-2024 15:00Clear Sky29°C9 mph, NE9%10000m1017hPa29%
22-Jun-2024 18:00Clear Sky30°C9 mph, NE6%10000m1014hPa25%
22-Jun-2024 21:00Clear Sky23°C2 mph, NW4%10000m1014hPa42%
23-Jun-2024 00:00Clear Sky21°C4 mph, E6%10000m1017hPa64%
23-Jun-2024 03:00Broken Clouds18°C2 mph, E54%10000m1017hPa83%
23-Jun-2024 06:00Scattered Clouds17°C4 mph, NE42%10000m1016hPa92%
23-Jun-2024 09:00Few Clouds16°C4 mph, E15%10000m1018hPa96%
23-Jun-2024 12:00Few Clouds24°C7 mph, E13%10000m1019hPa61%
23-Jun-2024 15:00Clear Sky30°C7 mph, NE0%10000m1016hPa36%
23-Jun-2024 18:00Clear Sky32°C4 mph, NE0%10000m1013hPa27%
23-Jun-2024 21:00Clear Sky25°C4 mph, NE1%10000m1013hPa40%
24-Jun-2024 00:00Clear Sky21°C0 mph, NW1%10000m1015hPa47%
24-Jun-2024 03:00Clear Sky20°C4 mph, NE2%10000m1016hPa53%
24-Jun-2024 06:00Few Clouds20°C2 mph, NE18%10000m1015hPa55%
24-Jun-2024 09:00Overcast Clouds21°C4 mph, NE99%10000m1016hPa51%
24-Jun-2024 12:00Broken Clouds26°C7 mph, NE53%10000m1018hPa44%
24-Jun-2024 15:00Clear Sky31°C7 mph, NE0%10000m1015hPa28%
24-Jun-2024 18:00Clear Sky32°C4 mph, E0%10000m1012hPa24%
24-Jun-2024 21:00Few Clouds25°C4 mph, NE14%10000m1014hPa36%
25-Jun-2024 00:00Scattered Clouds22°C2 mph, N48%10000m1016hPa41%
25-Jun-2024 03:00Broken Clouds20°C4 mph, NE57%10000m1017hPa49%
25-Jun-2024 06:00Scattered Clouds18°C0 mph, NW41%10000m1016hPa59%
25-Jun-2024 09:00Clear Sky17°C2 mph, NE4%10000m1017hPa67%
25-Jun-2024 12:00Clear Sky26°C4 mph, E3%10000m1019hPa47%
25-Jun-2024 15:00Clear Sky32°C4 mph, E4%10000m1016hPa30%
25-Jun-2024 18:00Clear Sky33°C7 mph, E8%10000m1012hPa25%
25-Jun-2024 21:00Scattered Clouds26°C4 mph, N29%10000m1013hPa37%
26-Jun-2024 00:00Broken Clouds25°C4 mph, E56%10000m1015hPa41%
26-Jun-2024 03:00Broken Clouds25°C7 mph, NE84%10000m1016hPa42%
26-Jun-2024 06:00Broken Clouds23°C7 mph, NE78%10000m1016hPa47%
26-Jun-2024 09:00Scattered Clouds20°C7 mph, NE44%10000m1017hPa64%